sensor_id;sensor_type;location;lat;lon;timestamp;pressure;altitude;pressure_sealevel;temperature
15079;BMP180;6932;51.438;5.470;2022-11-12T00:00:57;102748.00;;;13.90
15079;BMP180;6932;51.438;5.470;2022-11-12T00:03:24;102751.00;;;13.80
15079;BMP180;6932;51.438;5.470;2022-11-12T00:05:52;102761.00;;;13.80
15079;BMP180;6932;51.438;5.470;2022-11-12T00:08:20;102762.00;;;13.70
15079;BMP180;6932;51.438;5.470;2022-11-12T00:10:47;102762.00;;;13.70
15079;BMP180;6932;51.438;5.470;2022-11-12T00:13:13;102757.00;;;13.70
15079;BMP180;6932;51.438;5.470;2022-11-12T00:15:40;102758.00;;;13.60
15079;BMP180;6932;51.438;5.470;2022-11-12T00:18:06;102752.00;;;13.60
15079;BMP180;6932;51.438;5.470;2022-11-12T00:20:33;102752.00;;;13.60
15079;BMP180;6932;51.438;5.470;2022-11-12T00:22:59;102759.00;;;13.60
15079;BMP180;6932;51.438;5.470;2022-11-12T00:25:27;102756.00;;;13.50
15079;BMP180;6932;51.438;5.470;2022-11-12T00:27:53;102748.00;;;13.50
15079;BMP180;6932;51.438;5.470;2022-11-12T00:30:19;102756.00;;;13.50
15079;BMP180;6932;51.438;5.470;2022-11-12T00:32:44;102755.00;;;13.50
15079;BMP180;6932;51.438;5.470;2022-11-12T00:35:10;102759.00;;;13.50
15079;BMP180;6932;51.438;5.470;2022-11-12T00:37:37;102758.00;;;13.50
15079;BMP180;6932;51.438;5.470;2022-11-12T00:40:03;102754.00;;;13.50
15079;BMP180;6932;51.438;5.470;2022-11-12T00:42:30;102745.00;;;13.40
15079;BMP180;6932;51.438;5.470;2022-11-12T00:44:56;102761.00;;;13.40
15079;BMP180;6932;51.438;5.470;2022-11-12T00:47:22;102762.00;;;13.50
15079;BMP180;6932;51.438;5.470;2022-11-12T00:49:48;102761.00;;;13.50
15079;BMP180;6932;51.438;5.470;2022-11-12T00:52:15;102752.00;;;13.50
15079;BMP180;6932;51.438;5.470;2022-11-12T00:54:41;102763.00;;;13.50
15079;BMP180;6932;51.438;5.470;2022-11-12T00:57:07;102761.00;;;13.50
15079;BMP180;6932;51.438;5.470;2022-11-12T00:59:32;102754.00;;;13.50
15079;BMP180;6932;51.438;5.470;2022-11-12T01:01:58;102756.00;;;13.40
15079;BMP180;6932;51.438;5.470;2022-11-12T01:04:24;102750.00;;;13.40
15079;BMP180;6932;51.438;5.470;2022-11-12T01:06:50;102747.00;;;13.40
15079;BMP180;6932;51.438;5.470;2022-11-12T01:09:16;102747.00;;;13.40
15079;BMP180;6932;51.438;5.470;2022-11-12T01:11:42;102739.00;;;13.40
15079;BMP180;6932;51.438;5.470;2022-11-12T01:14:09;102744.00;;;13.40
15079;BMP180;6932;51.438;5.470;2022-11-12T01:16:39;102730.00;;;13.40
15079;BMP180;6932;51.438;5.470;2022-11-12T01:19:10;102730.00;;;13.30
15079;BMP180;6932;51.438;5.470;2022-11-12T01:21:41;102729.00;;;13.30
15079;BMP180;6932;51.438;5.470;2022-11-12T01:24:08;102728.00;;;13.30
15079;BMP180;6932;51.438;5.470;2022-11-12T01:26:35;102730.00;;;13.30
15079;BMP180;6932;51.438;5.470;2022-11-12T01:29:02;102732.00;;;13.30
15079;BMP180;6932;51.438;5.470;2022-11-12T01:31:36;102734.00;;;13.30
15079;BMP180;6932;51.438;5.470;2022-11-12T01:34:07;102733.00;;;13.30
15079;BMP180;6932;51.438;5.470;2022-11-12T01:36:37;102727.00;;;13.20
15079;BMP180;6932;51.438;5.470;2022-11-12T01:39:06;102731.00;;;13.20
15079;BMP180;6932;51.438;5.470;2022-11-12T01:41:36;102723.00;;;13.20
15079;BMP180;6932;51.438;5.470;2022-11-12T01:44:21;102727.00;;;13.20
15079;BMP180;6932;51.438;5.470;2022-11-12T01:47:29;102725.00;;;13.20
15079;BMP180;6932;51.438;5.470;2022-11-12T01:50:03;102731.00;;;13.20
15079;BMP180;6932;51.438;5.470;2022-11-12T01:52:49;102722.00;;;13.20
15079;BMP180;6932;51.438;5.470;2022-11-12T01:55:23;102721.00;;;13.20
15079;BMP180;6932;51.438;5.470;2022-11-12T02:00:31;102720.00;;;13.30
15079;BMP180;6932;51.438;5.470;2022-11-12T02:03:01;102723.00;;;13.30
15079;BMP180;6932;51.438;5.470;2022-11-12T02:05:29;102724.00;;;13.30
15079;BMP180;6932;51.438;5.470;2022-11-12T02:07:59;102720.00;;;13.30
15079;BMP180;6932;51.438;5.470;2022-11-12T02:10:26;102719.00;;;13.30
15079;BMP180;6932;51.438;5.470;2022-11-12T02:12:53;102719.00;;;13.30
15079;BMP180;6932;51.438;5.470;2022-11-12T02:15:40;102725.00;;;13.30
15079;BMP180;6932;51.438;5.470;2022-11-12T02:18:08;102719.00;;;13.30
15079;BMP180;6932;51.438;5.470;2022-11-12T02:20:36;102724.00;;;13.30
15079;BMP180;6932;51.438;5.470;2022-11-12T02:23:04;102720.00;;;13.30
15079;BMP180;6932;51.438;5.470;2022-11-12T02:25:31;102728.00;;;13.30
15079;BMP180;6932;51.438;5.470;2022-11-12T02:27:58;102723.00;;;13.30
15079;BMP180;6932;51.438;5.470;2022-11-12T02:30:39;102718.00;;;13.30
15079;BMP180;6932;51.438;5.470;2022-11-12T02:33:06;102731.00;;;13.20
15079;BMP180;6932;51.438;5.470;2022-11-12T02:35:32;102728.00;;;13.20
15079;BMP180;6932;51.438;5.470;2022-11-12T02:37:58;102728.00;;;13.20
15079;BMP180;6932;51.438;5.470;2022-11-12T02:40:25;102726.00;;;13.20
15079;BMP180;6932;51.438;5.470;2022-11-12T02:42:54;102724.00;;;13.20
15079;BMP180;6932;51.438;5.470;2022-11-12T02:45:20;102716.00;;;13.20
15079;BMP180;6932;51.438;5.470;2022-11-12T02:47:46;102721.00;;;13.20
15079;BMP180;6932;51.438;5.470;2022-11-12T02:50:23;102707.00;;;13.20
15079;BMP180;6932;51.438;5.470;2022-11-12T02:52:49;102710.00;;;13.20
15079;BMP180;6932;51.438;5.470;2022-11-12T02:55:15;102701.00;;;13.20
15079;BMP180;6932;51.438;5.470;2022-11-12T02:57:40;102696.00;;;13.20
15079;BMP180;6932;51.438;5.470;2022-11-12T03:00:11;102705.00;;;13.20
15079;BMP180;6932;51.438;5.470;2022-11-12T03:02:37;102707.00;;;13.20
15079;BMP180;6932;51.438;5.470;2022-11-12T03:05:09;102694.00;;;13.20
15079;BMP180;6932;51.438;5.470;2022-11-12T03:07:36;102709.00;;;13.10
15079;BMP180;6932;51.438;5.470;2022-11-12T03:10:04;102714.00;;;13.10
15079;BMP180;6932;51.438;5.470;2022-11-12T03:12:31;102700.00;;;13.10
15079;BMP180;6932;51.438;5.470;2022-11-12T03:14:57;102709.00;;;13.00
15079;BMP180;6932;51.438;5.470;2022-11-12T03:17:23;102710.00;;;13.00
15079;BMP180;6932;51.438;5.470;2022-11-12T03:19:49;102717.00;;;13.00
15079;BMP180;6932;51.438;5.470;2022-11-12T03:22:15;102720.00;;;13.00
15079;BMP180;6932;51.438;5.470;2022-11-12T03:24:41;102713.00;;;13.00
15079;BMP180;6932;51.438;5.470;2022-11-12T03:27:06;102716.00;;;13.00
15079;BMP180;6932;51.438;5.470;2022-11-12T03:29:32;102715.00;;;12.90
15079;BMP180;6932;51.438;5.470;2022-11-12T03:31:58;102719.00;;;12.90
15079;BMP180;6932;51.438;5.470;2022-11-12T03:34:24;102728.00;;;12.90
15079;BMP180;6932;51.438;5.470;2022-11-12T03:36:50;102726.00;;;12.80
15079;BMP180;6932;51.438;5.470;2022-11-12T03:39:16;102725.00;;;12.80
15079;BMP180;6932;51.438;5.470;2022-11-12T03:41:42;102726.00;;;12.80
15079;BMP180;6932;51.438;5.470;2022-11-12T03:44:10;102725.00;;;12.80
15079;BMP180;6932;51.438;5.470;2022-11-12T03:46:36;102717.00;;;12.70
15079;BMP180;6932;51.438;5.470;2022-11-12T03:49:03;102724.00;;;12.70
15079;BMP180;6932;51.438;5.470;2022-11-12T03:51:29;102720.00;;;12.70
15079;BMP180;6932;51.438;5.470;2022-11-12T03:53:55;102730.00;;;12.70
15079;BMP180;6932;51.438;5.470;2022-11-12T03:56:20;102727.00;;;12.60
15079;BMP180;6932;51.438;5.470;2022-11-12T03:58:46;102728.00;;;12.60
15079;BMP180;6932;51.438;5.470;2022-11-12T04:01:12;102727.00;;;12.60
15079;BMP180;6932;51.438;5.470;2022-11-12T04:03:38;102722.00;;;12.50
15079;BMP180;6932;51.438;5.470;2022-11-12T04:06:04;102713.00;;;12.60
15079;BMP180;6932;51.438;5.470;2022-11-12T04:08:49;102705.00;;;12.50
15079;BMP180;6932;51.438;5.470;2022-11-12T04:11:18;102703.00;;;12.50
15079;BMP180;6932;51.438;5.470;2022-11-12T04:13:46;102712.00;;;12.50
15079;BMP180;6932;51.438;5.470;2022-11-12T04:16:19;102708.00;;;12.50
15079;BMP180;6932;51.438;5.470;2022-11-12T04:19:06;102701.00;;;12.50
15079;BMP180;6932;51.438;5.470;2022-11-12T04:22:05;102694.00;;;12.50
15079;BMP180;6932;51.438;5.470;2022-11-12T04:24:40;102692.00;;;12.50
15079;BMP180;6932;51.438;5.470;2022-11-12T04:27:33;102694.00;;;12.50
15079;BMP180;6932;51.438;5.470;2022-11-12T04:29:59;102685.00;;;12.50
15079;BMP180;6932;51.438;5.470;2022-11-12T04:33:00;102688.00;;;12.50
15079;BMP180;6932;51.438;5.470;2022-11-12T04:35:27;102693.00;;;12.50
15079;BMP180;6932;51.438;5.470;2022-11-12T04:37:53;102690.00;;;12.50
15079;BMP180;6932;51.438;5.470;2022-11-12T04:40:25;102692.00;;;12.50
15079;BMP180;6932;51.438;5.470;2022-11-12T04:43:15;102689.00;;;12.50
15079;BMP180;6932;51.438;5.470;2022-11-12T04:46:02;102676.00;;;12.50
15079;BMP180;6932;51.438;5.470;2022-11-12T04:48:29;102683.00;;;12.50
15079;BMP180;6932;51.438;5.470;2022-11-12T04:50:59;102677.00;;;12.50
15079;BMP180;6932;51.438;5.470;2022-11-12T04:53:26;102671.00;;;12.50
15079;BMP180;6932;51.438;5.470;2022-11-12T04:55:55;102682.00;;;12.50
15079;BMP180;6932;51.438;5.470;2022-11-12T04:58:22;102680.00;;;12.50
15079;BMP180;6932;51.438;5.470;2022-11-12T05:00:49;102676.00;;;12.60
15079;BMP180;6932;51.438;5.470;2022-11-12T05:03:16;102675.00;;;12.60
15079;BMP180;6932;51.438;5.470;2022-11-12T05:05:42;102673.00;;;12.60
15079;BMP180;6932;51.438;5.470;2022-11-12T05:08:08;102672.00;;;12.60
15079;BMP180;6932;51.438;5.470;2022-11-12T05:10:33;102670.00;;;12.60
15079;BMP180;6932;51.438;5.470;2022-11-12T05:12:59;102673.00;;;12.60
15079;BMP180;6932;51.438;5.470;2022-11-12T05:15:27;102668.00;;;12.60
15079;BMP180;6932;51.438;5.470;2022-11-12T05:17:58;102667.00;;;12.60
15079;BMP180;6932;51.438;5.470;2022-11-12T05:20:24;102663.00;;;12.60
15079;BMP180;6932;51.438;5.470;2022-11-12T05:22:50;102664.00;;;12.50
15079;BMP180;6932;51.438;5.470;2022-11-12T05:25:19;102662.00;;;12.50
15079;BMP180;6932;51.438;5.470;2022-11-12T05:27:45;102655.00;;;12.50
15079;BMP180;6932;51.438;5.470;2022-11-12T05:30:11;102658.00;;;12.50
15079;BMP180;6932;51.438;5.470;2022-11-12T05:32:37;102648.00;;;12.50
15079;BMP180;6932;51.438;5.470;2022-11-12T05:35:05;102657.00;;;12.50
15079;BMP180;6932;51.438;5.470;2022-11-12T05:37:31;102652.00;;;12.50
15079;BMP180;6932;51.438;5.470;2022-11-12T05:39:56;102646.00;;;12.50
15079;BMP180;6932;51.438;5.470;2022-11-12T05:42:24;102664.00;;;12.50
15079;BMP180;6932;51.438;5.470;2022-11-12T05:44:49;102658.00;;;12.40
15079;BMP180;6932;51.438;5.470;2022-11-12T05:47:16;102656.00;;;12.40
15079;BMP180;6932;51.438;5.470;2022-11-12T05:49:42;102657.00;;;12.40
15079;BMP180;6932;51.438;5.470;2022-11-12T05:52:07;102654.00;;;12.40
15079;BMP180;6932;51.438;5.470;2022-11-12T05:54:33;102653.00;;;12.40
15079;BMP180;6932;51.438;5.470;2022-11-12T05:56:59;102651.00;;;12.40
15079;BMP180;6932;51.438;5.470;2022-11-12T05:59:25;102652.00;;;12.30
15079;BMP180;6932;51.438;5.470;2022-11-12T06:01:51;102648.00;;;12.30
15079;BMP180;6932;51.438;5.470;2022-11-12T06:04:17;102654.00;;;12.30
15079;BMP180;6932;51.438;5.470;2022-11-12T06:06:43;102651.00;;;12.30
15079;BMP180;6932;51.438;5.470;2022-11-12T06:09:10;102654.00;;;12.30
15079;BMP180;6932;51.438;5.470;2022-11-12T06:11:38;102664.00;;;12.30
15079;BMP180;6932;51.438;5.470;2022-11-12T06:14:05;102656.00;;;12.40
15079;BMP180;6932;51.438;5.470;2022-11-12T06:16:31;102654.00;;;12.40
15079;BMP180;6932;51.438;5.470;2022-11-12T06:18:57;102658.00;;;12.40
15079;BMP180;6932;51.438;5.470;2022-11-12T06:21:23;102654.00;;;12.40
15079;BMP180;6932;51.438;5.470;2022-11-12T06:23:58;102662.00;;;12.40
15079;BMP180;6932;51.438;5.470;2022-11-12T06:26:28;102656.00;;;12.40
15079;BMP180;6932;51.438;5.470;2022-11-12T06:28:55;102657.00;;;12.40
15079;BMP180;6932;51.438;5.470;2022-11-12T06:31:24;102670.00;;;12.40
15079;BMP180;6932;51.438;5.470;2022-11-12T06:33:50;102670.00;;;12.40
15079;BMP180;6932;51.438;5.470;2022-11-12T06:36:18;102670.00;;;12.40
15079;BMP180;6932;51.438;5.470;2022-11-12T06:38:44;102671.00;;;12.40
15079;BMP180;6932;51.438;5.470;2022-11-12T06:41:12;102665.00;;;12.40
15079;BMP180;6932;51.438;5.470;2022-11-12T06:43:38;102664.00;;;12.40
15079;BMP180;6932;51.438;5.470;2022-11-12T06:46:10;102669.00;;;12.40
15079;BMP180;6932;51.438;5.470;2022-11-12T06:48:36;102669.00;;;12.40
15079;BMP180;6932;51.438;5.470;2022-11-12T06:51:18;102674.00;;;12.40
15079;BMP180;6932;51.438;5.470;2022-11-12T06:53:44;102673.00;;;12.40
15079;BMP180;6932;51.438;5.470;2022-11-12T06:56:11;102672.00;;;12.30
15079;BMP180;6932;51.438;5.470;2022-11-12T06:58:38;102664.00;;;12.40
15079;BMP180;6932;51.438;5.470;2022-11-12T07:01:16;102677.00;;;12.40
15079;BMP180;6932;51.438;5.470;2022-11-12T07:03:43;102680.00;;;12.40
15079;BMP180;6932;51.438;5.470;2022-11-12T07:06:15;102681.00;;;12.40
15079;BMP180;6932;51.438;5.470;2022-11-12T07:08:43;102672.00;;;12.40
15079;BMP180;6932;51.438;5.470;2022-11-12T07:11:09;102672.00;;;12.50
15079;BMP180;6932;51.438;5.470;2022-11-12T07:13:36;102676.00;;;12.50
15079;BMP180;6932;51.438;5.470;2022-11-12T07:16:04;102681.00;;;12.60
15079;BMP180;6932;51.438;5.470;2022-11-12T07:18:32;102668.00;;;12.70
15079;BMP180;6932;51.438;5.470;2022-11-12T07:21:11;102680.00;;;12.70
15079;BMP180;6932;51.438;5.470;2022-11-12T07:23:41;102681.00;;;12.80
15079;BMP180;6932;51.438;5.470;2022-11-12T07:26:23;102686.00;;;12.90
15079;BMP180;6932;51.438;5.470;2022-11-12T07:28:51;102679.00;;;13.00
15079;BMP180;6932;51.438;5.470;2022-11-12T07:31:19;102692.00;;;13.00
15079;BMP180;6932;51.438;5.470;2022-11-12T07:33:46;102690.00;;;13.10
15079;BMP180;6932;51.438;5.470;2022-11-12T07:36:18;102687.00;;;13.10
15079;BMP180;6932;51.438;5.470;2022-11-12T07:38:44;102691.00;;;13.20
15079;BMP180;6932;51.438;5.470;2022-11-12T07:41:21;102694.00;;;13.30
15079;BMP180;6932;51.438;5.470;2022-11-12T07:43:49;102699.00;;;13.30
15079;BMP180;6932;51.438;5.470;2022-11-12T07:46:26;102704.00;;;13.40
15079;BMP180;6932;51.438;5.470;2022-11-12T07:48:53;102707.00;;;13.50
15079;BMP180;6932;51.438;5.470;2022-11-12T07:51:26;102713.00;;;13.50
15079;BMP180;6932;51.438;5.470;2022-11-12T07:53:56;102700.00;;;13.60
15079;BMP180;6932;51.438;5.470;2022-11-12T07:56:24;102699.00;;;13.60
15079;BMP180;6932;51.438;5.470;2022-11-12T07:58:51;102694.00;;;13.60
15079;BMP180;6932;51.438;5.470;2022-11-12T08:01:31;102706.00;;;13.70
15079;BMP180;6932;51.438;5.470;2022-11-12T08:04:02;102699.00;;;13.70
15079;BMP180;6932;51.438;5.470;2022-11-12T08:06:30;102701.00;;;13.70
15079;BMP180;6932;51.438;5.470;2022-11-12T08:08:59;102713.00;;;13.70
15079;BMP180;6932;51.438;5.470;2022-11-12T08:11:25;102703.00;;;13.70
15079;BMP180;6932;51.438;5.470;2022-11-12T08:13:52;102711.00;;;13.70
15079;BMP180;6932;51.438;5.470;2022-11-12T08:16:21;102709.00;;;13.80
15079;BMP180;6932;51.438;5.470;2022-11-12T08:18:47;102704.00;;;13.80
15079;BMP180;6932;51.438;5.470;2022-11-12T08:21:16;102713.00;;;13.80
15079;BMP180;6932;51.438;5.470;2022-11-12T08:23:43;102706.00;;;13.90
15079;BMP180;6932;51.438;5.470;2022-11-12T08:26:13;102716.00;;;13.90
15079;BMP180;6932;51.438;5.470;2022-11-12T08:28:40;102720.00;;;14.00
15079;BMP180;6932;51.438;5.470;2022-11-12T08:31:17;102717.00;;;14.10
15079;BMP180;6932;51.438;5.470;2022-11-12T08:33:43;102714.00;;;14.20
15079;BMP180;6932;51.438;5.470;2022-11-12T08:36:12;102717.00;;;14.20
15079;BMP180;6932;51.438;5.470;2022-11-12T08:38:38;102714.00;;;14.30
15079;BMP180;6932;51.438;5.470;2022-11-12T08:41:09;102719.00;;;14.30
15079;BMP180;6932;51.438;5.470;2022-11-12T08:43:36;102731.00;;;14.40
15079;BMP180;6932;51.438;5.470;2022-11-12T08:46:03;102728.00;;;14.50
15079;BMP180;6932;51.438;5.470;2022-11-12T08:48:31;102726.00;;;14.60
15079;BMP180;6932;51.438;5.470;2022-11-12T08:51:00;102733.00;;;14.60
15079;BMP180;6932;51.438;5.470;2022-11-12T08:53:26;102726.00;;;14.70
15079;BMP180;6932;51.438;5.470;2022-11-12T08:55:54;102720.00;;;14.80
15079;BMP180;6932;51.438;5.470;2022-11-12T08:58:22;102724.00;;;15.00
15079;BMP180;6932;51.438;5.470;2022-11-12T09:00:48;102721.00;;;15.10
15079;BMP180;6932;51.438;5.470;2022-11-12T09:03:22;102724.00;;;15.20
15079;BMP180;6932;51.438;5.470;2022-11-12T09:05:49;102728.00;;;15.30
15079;BMP180;6932;51.438;5.470;2022-11-12T09:08:20;102719.00;;;15.40
15079;BMP180;6932;51.438;5.470;2022-11-12T09:10:47;102727.00;;;15.50
15079;BMP180;6932;51.438;5.470;2022-11-12T09:13:14;102725.00;;;15.60
15079;BMP180;6932;51.438;5.470;2022-11-12T09:15:41;102723.00;;;15.60
15079;BMP180;6932;51.438;5.470;2022-11-12T09:18:13;102723.00;;;15.70
15079;BMP180;6932;51.438;5.470;2022-11-12T09:20:39;102719.00;;;15.80
15079;BMP180;6932;51.438;5.470;2022-11-12T09:23:30;102725.00;;;15.90
15079;BMP180;6932;51.438;5.470;2022-11-12T09:26:09;102725.00;;;16.00
15079;BMP180;6932;51.438;5.470;2022-11-12T09:28:35;102714.00;;;16.00
15079;BMP180;6932;51.438;5.470;2022-11-12T09:31:01;102715.00;;;16.10
15079;BMP180;6932;51.438;5.470;2022-11-12T09:33:34;102718.00;;;16.20
15079;BMP180;6932;51.438;5.470;2022-11-12T09:36:02;102726.00;;;16.30
15079;BMP180;6932;51.438;5.470;2022-11-12T09:38:29;102719.00;;;16.30
15079;BMP180;6932;51.438;5.470;2022-11-12T09:43:57;102723.00;;;16.40
15079;BMP180;6932;51.438;5.470;2022-11-12T09:46:32;102731.00;;;16.50
15079;BMP180;6932;51.438;5.470;2022-11-12T09:49:13;102724.00;;;16.60
15079;BMP180;6932;51.438;5.470;2022-11-12T09:51:55;102726.00;;;16.60
15079;BMP180;6932;51.438;5.470;2022-11-12T09:54:26;102726.00;;;16.70
15079;BMP180;6932;51.438;5.470;2022-11-12T09:56:53;102719.00;;;16.70
15079;BMP180;6932;51.438;5.470;2022-11-12T09:59:21;102720.00;;;16.70
15079;BMP180;6932;51.438;5.470;2022-11-12T10:22:35;102705.00;;;17.50
15079;BMP180;6932;51.438;5.470;2022-11-12T10:25:20;102711.00;;;17.60
15079;BMP180;6932;51.438;5.470;2022-11-12T10:27:48;102708.00;;;17.60
15079;BMP180;6932;51.438;5.470;2022-11-12T10:30:22;102713.00;;;17.70
15079;BMP180;6932;51.438;5.470;2022-11-12T10:32:52;102712.00;;;17.80
15079;BMP180;6932;51.438;5.470;2022-11-12T10:35:22;102715.00;;;17.80
15079;BMP180;6932;51.438;5.470;2022-11-12T10:38:04;102713.00;;;17.90
15079;BMP180;6932;51.438;5.470;2022-11-12T10:43:22;102702.00;;;18.10
15079;BMP180;6932;51.438;5.470;2022-11-12T10:45:49;102703.00;;;18.20
15079;BMP180;6932;51.438;5.470;2022-11-12T10:48:31;102706.00;;;18.40
15079;BMP180;6932;51.438;5.470;2022-11-12T10:50:59;102707.00;;;18.60
15079;BMP180;6932;51.438;5.470;2022-11-12T10:53:38;102693.00;;;18.80
15079;BMP180;6932;51.438;5.470;2022-11-12T10:59:13;102696.00;;;19.00
15079;BMP180;6932;51.438;5.470;2022-11-12T11:01:43;102691.00;;;19.10
15079;BMP180;6932;51.438;5.470;2022-11-12T11:04:37;102684.00;;;19.20
15079;BMP180;6932;51.438;5.470;2022-11-12T11:07:20;102684.00;;;19.30
15079;BMP180;6932;51.438;5.470;2022-11-12T11:09:58;102684.00;;;19.30
15079;BMP180;6932;51.438;5.470;2022-11-12T11:12:33;102678.00;;;19.40
15079;BMP180;6932;51.438;5.470;2022-11-12T11:15:20;102678.00;;;19.40
15079;BMP180;6932;51.438;5.470;2022-11-12T11:17:49;102683.00;;;19.40
15079;BMP180;6932;51.438;5.470;2022-11-12T11:20:46;102682.00;;;19.40
15079;BMP180;6932;51.438;5.470;2022-11-12T11:35:17;102677.00;;;19.40
15079;BMP180;6932;51.438;5.470;2022-11-12T11:52:41;102658.00;;;19.70
15079;BMP180;6932;51.438;5.470;2022-11-12T12:01:28;102657.00;;;19.80
15079;BMP180;6932;51.438;5.470;2022-11-12T12:07:33;102648.00;;;19.90
15079;BMP180;6932;51.438;5.470;2022-11-12T12:10:24;102645.00;;;20.00
15079;BMP180;6932;51.438;5.470;2022-11-12T12:15:55;102633.00;;;20.00
15079;BMP180;6932;51.438;5.470;2022-11-12T12:19:30;102624.00;;;20.10
15079;BMP180;6932;51.438;5.470;2022-11-12T12:21:52;102621.00;;;20.00
15079;BMP180;6932;51.438;5.470;2022-11-12T12:24:31;102616.00;;;20.10
15079;BMP180;6932;51.438;5.470;2022-11-12T12:29:51;102608.00;;;20.00
15079;BMP180;6932;51.438;5.470;2022-11-12T12:33:23;102603.00;;;20.00
15079;BMP180;6932;51.438;5.470;2022-11-12T12:36:30;102598.00;;;19.90
15079;BMP180;6932;51.438;5.470;2022-11-12T12:39:30;102597.00;;;19.90
15079;BMP180;6932;51.438;5.470;2022-11-12T12:42:08;102586.00;;;20.00
15079;BMP180;6932;51.438;5.470;2022-11-12T12:45:08;102600.00;;;20.00
15079;BMP180;6932;51.438;5.470;2022-11-12T12:47:51;102593.00;;;20.00
15079;BMP180;6932;51.438;5.470;2022-11-12T12:53:32;102598.00;;;20.00
15079;BMP180;6932;51.438;5.470;2022-11-12T12:58:46;102591.00;;;20.00
15079;BMP180;6932;51.438;5.470;2022-11-12T13:04:08;102590.00;;;20.00
15079;BMP180;6932;51.438;5.470;2022-11-12T13:40:51;102571.00;;;20.20
15079;BMP180;6932;51.438;5.470;2022-11-12T13:43:57;102571.00;;;20.20
15079;BMP180;6932;51.438;5.470;2022-11-12T13:46:30;102568.00;;;20.20
15079;BMP180;6932;51.438;5.470;2022-11-12T13:49:02;102569.00;;;20.20
15079;BMP180;6932;51.438;5.470;2022-11-12T13:51:43;102569.00;;;20.20
15079;BMP180;6932;51.438;5.470;2022-11-12T13:54:34;102565.00;;;20.20
15079;BMP180;6932;51.438;5.470;2022-11-12T14:00:08;102561.00;;;20.30
15079;BMP180;6932;51.438;5.470;2022-11-12T14:02:37;102560.00;;;20.30
15079;BMP180;6932;51.438;5.470;2022-11-12T14:05:15;102566.00;;;20.30
15079;BMP180;6932;51.438;5.470;2022-11-12T14:08:09;102569.00;;;20.30
15079;BMP180;6932;51.438;5.470;2022-11-12T14:17:01;102570.00;;;20.30
15079;BMP180;6932;51.438;5.470;2022-11-12T14:22:42;102577.00;;;20.20
15079;BMP180;6932;51.438;5.470;2022-11-12T14:25:18;102565.00;;;20.30
15079;BMP180;6932;51.438;5.470;2022-11-12T14:27:49;102568.00;;;20.20
15079;BMP180;6932;51.438;5.470;2022-11-12T14:32:56;102560.00;;;20.20
15079;BMP180;6932;51.438;5.470;2022-11-12T14:35:36;102550.00;;;20.10
15079;BMP180;6932;51.438;5.470;2022-11-12T14:38:03;102554.00;;;20.10
15079;BMP180;6932;51.438;5.470;2022-11-12T14:40:37;102543.00;;;20.10
15079;BMP180;6932;51.438;5.470;2022-11-12T14:43:24;102547.00;;;20.10
15079;BMP180;6932;51.438;5.470;2022-11-12T14:45:53;102547.00;;;20.10
15079;BMP180;6932;51.438;5.470;2022-11-12T14:48:20;102550.00;;;20.00
15079;BMP180;6932;51.438;5.470;2022-11-12T14:50:53;102552.00;;;20.00
15079;BMP180;6932;51.438;5.470;2022-11-12T14:53:28;102552.00;;;20.00
15079;BMP180;6932;51.438;5.470;2022-11-12T14:55:56;102552.00;;;20.00
15079;BMP180;6932;51.438;5.470;2022-11-12T14:58:26;102545.00;;;19.90
15079;BMP180;6932;51.438;5.470;2022-11-12T15:00:56;102544.00;;;19.90
15079;BMP180;6932;51.438;5.470;2022-11-12T15:03:31;102531.00;;;19.90
15079;BMP180;6932;51.438;5.470;2022-11-12T15:08:35;102545.00;;;19.80
15079;BMP180;6932;51.438;5.470;2022-11-12T15:11:41;102547.00;;;19.80
15079;BMP180;6932;51.438;5.470;2022-11-12T15:14:20;102543.00;;;19.80
15079;BMP180;6932;51.438;5.470;2022-11-12T15:16:50;102546.00;;;19.70
15079;BMP180;6932;51.438;5.470;2022-11-12T15:19:26;102552.00;;;19.70
15079;BMP180;6932;51.438;5.470;2022-11-12T15:22:02;102536.00;;;19.70
15079;BMP180;6932;51.438;5.470;2022-11-12T15:24:35;102528.00;;;19.70
15079;BMP180;6932;51.438;5.470;2022-11-12T15:27:41;102530.00;;;19.60
15079;BMP180;6932;51.438;5.470;2022-11-12T15:30:30;102528.00;;;19.60
15079;BMP180;6932;51.438;5.470;2022-11-12T15:35:43;102532.00;;;19.60
15079;BMP180;6932;51.438;5.470;2022-11-12T15:38:33;102531.00;;;19.60
15079;BMP180;6932;51.438;5.470;2022-11-12T15:41:04;102526.00;;;19.50
15079;BMP180;6932;51.438;5.470;2022-11-12T15:43:40;102530.00;;;19.50
15079;BMP180;6932;51.438;5.470;2022-11-12T15:46:13;102529.00;;;19.50
15079;BMP180;6932;51.438;5.470;2022-11-12T15:48:48;102530.00;;;19.40
15079;BMP180;6932;51.438;5.470;2022-11-12T15:51:17;102524.00;;;19.40
15079;BMP180;6932;51.438;5.470;2022-11-12T15:53:53;102531.00;;;19.40
15079;BMP180;6932;51.438;5.470;2022-11-12T15:56:22;102527.00;;;19.40
15079;BMP180;6932;51.438;5.470;2022-11-12T15:58:48;102527.00;;;19.30
15079;BMP180;6932;51.438;5.470;2022-11-12T16:01:16;102531.00;;;19.30
15079;BMP180;6932;51.438;5.470;2022-11-12T16:03:42;102522.00;;;19.30
15079;BMP180;6932;51.438;5.470;2022-11-12T16:06:14;102509.00;;;19.30
15079;BMP180;6932;51.438;5.470;2022-11-12T16:08:41;102520.00;;;19.30
15079;BMP180;6932;51.438;5.470;2022-11-12T16:11:09;102509.00;;;19.20
15079;BMP180;6932;51.438;5.470;2022-11-12T16:13:56;102514.00;;;19.20
15079;BMP180;6932;51.438;5.470;2022-11-12T16:16:22;102504.00;;;19.20
15079;BMP180;6932;51.438;5.470;2022-11-12T16:18:49;102514.00;;;19.10
15079;BMP180;6932;51.438;5.470;2022-11-12T16:21:16;102515.00;;;19.10
15079;BMP180;6932;51.438;5.470;2022-11-12T16:24:00;102510.00;;;19.10
15079;BMP180;6932;51.438;5.470;2022-11-12T16:26:29;102508.00;;;19.00
15079;BMP180;6932;51.438;5.470;2022-11-12T16:28:56;102515.00;;;19.00
15079;BMP180;6932;51.438;5.470;2022-11-12T16:31:25;102509.00;;;19.00
15079;BMP180;6932;51.438;5.470;2022-11-12T16:33:51;102511.00;;;19.00
15079;BMP180;6932;51.438;5.470;2022-11-12T16:36:17;102512.00;;;18.90
15079;BMP180;6932;51.438;5.470;2022-11-12T16:38:45;102518.00;;;18.90
15079;BMP180;6932;51.438;5.470;2022-11-12T16:41:14;102513.00;;;18.90
15079;BMP180;6932;51.438;5.470;2022-11-12T16:43:44;102518.00;;;18.90
15079;BMP180;6932;51.438;5.470;2022-11-12T16:46:23;102516.00;;;18.80
15079;BMP180;6932;51.438;5.470;2022-11-12T16:48:52;102516.00;;;18.80
15079;BMP180;6932;51.438;5.470;2022-11-12T16:51:24;102511.00;;;18.70